Terminal Aerodrome Forecast
Issued by NWS

Home | Current Version | Previous Version | Text Only | Print | Product List | Glossary On
Versions: 1 2 3 4 5 6 7 8 9 10 11 12 13 14 15 16 17 18 19 20 21
000
FTUS42 KFFC 191126
TAFPDK
TAF
KPDK 191126Z 1912/2012 00000KT 6SM BR SCT007 BKN012
      TEMPO 1912/1915 4SM BR BKN007
     FM191500 29006KT P6SM SCT020
     FM191700 31006KT P6SM SCT035
     FM192000 31006KT P6SM FEW250
     FM200000 00000KT P6SM SCT250=

USA.gov is the U.S. government's official web portal to all federal, state and local government web resources and services.